Time;durP1;ratioP1;P1;durP2;ratioP2;P2;SDS_P1;SDS_P2;PMS_P1;PMS_P2;Temp;Humidity;BMP_temperature;BMP_pressure;BME280_temperature;BME280_humidity;BME280_pressure;Samples;Min_cycle;Max_cycle;Signal;HPM_P1;HPM_P2
2022/03/24 00:01:49;;;;;;;29.35;14.32;;;;;;;3.22;74.22;97664.03;5017135;28;20088;-66
2022/03/24 00:04:14;;;;;;;23.75;12.63;;;;;;;3.24;75.20;97655.56;5012517;28;20069;-65
2022/03/24 00:06:40;;;;;;;31.02;13.82;;;;;;;3.16;73.11;97656.25;5016367;28;20049;-66
2022/03/24 00:09:05;;;;;;;33.67;13.55;;;;;;;2.97;74.79;97654.38;5001255;28;20122;-66
2022/03/24 00:11:31;;;;;;;26.20;13.00;;;;;;;2.38;78.70;97661.94;5005289;28;20499;-65
2022/03/24 00:13:56;;;;;;;25.08;13.35;;;;;;;2.22;80.15;97653.22;5014738;28;20032;-63
2022/03/24 00:16:22;;;;;;;24.25;14.00;;;;;;;2.12;80.48;97657.94;5019089;28;20036;-63
2022/03/24 00:18:48;;;;;;;30.77;16.02;;;;;;;2.07;79.22;97656.06;5015001;28;20034;-64
2022/03/24 00:21:16;;;;;;;26.63;14.20;;;;;;;2.10;79.54;97652.81;5013782;28;20042;-66
2022/03/24 00:23:42;;;;;;;24.67;13.77;;;;;;;2.21;80.95;97650.78;5003665;28;20030;-62
2022/03/24 00:26:08;;;;;;;28.67;13.77;;;;;;;2.19;81.21;97642.97;4998274;28;20482;-66
2022/03/24 00:28:33;;;;;;;28.92;15.65;;;;;;;2.07;80.37;97646.09;4993849;28;20038;-65
2022/03/24 00:30:59;;;;;;;27.60;14.73;;;;;;;1.97;83.27;97640.78;5005832;28;20483;-63
2022/03/24 00:33:25;;;;;;;28.38;14.52;;;;;;;1.92;84.07;97643.56;5014476;28;20402;-64
2022/03/24 00:35:51;;;;;;;30.08;15.45;;;;;;;1.92;83.82;97654.34;5010402;28;20038;-61
2022/03/24 00:38:16;;;;;;;25.80;14.02;;;;;;;2.03;83.21;97652.34;5010936;28;20046;-62
2022/03/24 00:40:42;;;;;;;25.25;13.75;;;;;;;2.05;83.05;97655.56;5010480;28;20056;-63
2022/03/24 00:43:08;;;;;;;23.67;12.20;;;;;;;2.09;82.68;97652.00;5010577;28;20022;-64
2022/03/24 00:45:34;;;;;;;25.35;12.88;;;;;;;1.94;82.71;97648.69;5010670;28;20509;-62
2022/03/24 00:47:59;;;;;;;25.52;12.95;;;;;;;1.95;83.03;97651.09;5011344;28;20674;-63
2022/03/24 00:50:25;;;;;;;24.05;12.82;;;;;;;1.85;83.44;97641.19;5011174;28;20468;-64
2022/03/24 00:52:50;;;;;;;24.88;13.27;;;;;;;1.95;82.60;97643.00;5010430;28;20034;-64
2022/03/24 00:55:18;;;;;;;22.75;13.32;;;;;;;2.02;81.93;97648.84;5011017;28;20033;-65
2022/03/24 00:57:46;;;;;;;25.80;13.48;;;;;;;2.14;81.66;97640.31;5011438;28;20108;-65
2022/03/24 01:00:17;;;;;;;26.55;13.52;;;;;;;2.08;80.47;97642.28;5011093;28;20044;-68
2022/03/24 01:02:44;;;;;;;34.40;13.05;;;;;;;2.13;81.71;97654.16;5011303;28;20049;-64
2022/03/24 01:05:13;;;;;;;25.90;13.27;;;;;;;2.01;78.92;97644.53;5010578;28;20029;-64
2022/03/24 01:07:39;;;;;;;28.50;12.70;;;;;;;1.97;80.06;97645.41;5011593;28;20057;-64
2022/03/24 01:10:06;;;;;;;23.33;12.55;;;;;;;2.04;80.59;97651.28;5014095;28;20055;-65
2022/03/24 01:12:32;;;;;;;24.83;13.48;;;;;;;1.98;80.50;97650.53;5012801;28;20030;-63
2022/03/24 01:14:58;;;;;;;30.05;12.55;;;;;;;1.87;80.63;97647.13;5013180;28;20116;-64
2022/03/24 01:17:26;;;;;;;22.70;13.10;;;;;;;1.88;81.71;97647.94;5012529;28;20398;-61
2022/03/24 01:19:52;;;;;;;24.67;13.32;;;;;;;2.06;81.65;97651.78;5009992;28;20033;-65
2022/03/24 01:22:18;;;;;;;28.08;13.25;;;;;;;1.93;80.31;97653.28;5013220;28;20048;-64
2022/03/24 01:24:45;;;;;;;27.27;14.55;;;;;;;1.76;81.63;97656.41;5014688;28;20034;-65
2022/03/24 01:27:11;;;;;;;24.85;12.50;;;;;;;1.75;82.55;97649.41;5014449;28;20038;-64
2022/03/24 01:29:37;;;;;;;26.63;13.70;;;;;;;1.76;81.47;97648.31;5028915;28;20022;-64
2022/03/24 01:32:03;;;;;;;24.30;12.77;;;;;;;1.62;81.61;97644.66;5012437;28;20079;-65
2022/03/24 01:34:29;;;;;;;28.52;13.73;;;;;;;1.13;86.31;97638.34;5013612;28;20547;-64
2022/03/24 01:36:55;;;;;;;28.23;14.93;;;;;;;0.84;87.51;97639.09;5014844;28;20037;-65
2022/03/24 01:39:22;;;;;;;31.42;14.82;;;;;;;0.75;90.19;97638.09;5018134;28;20021;-65
2022/03/24 01:41:48;;;;;;;31.27;15.60;;;;;;;0.79;89.87;97635.63;5008581;28;20046;-64
2022/03/24 01:44:17;;;;;;;35.05;14.98;;;;;;;1.05;89.66;97633.56;5013507;28;20490;-65
2022/03/24 01:47:00;;;;;;;28.45;14.52;;;;;;;1.00;89.28;97628.22;5018640;28;20471;-64
2022/03/24 01:49:28;;;;;;;31.52;14.30;;;;;;;1.20;88.47;97636.13;5010319;28;20034;-65
2022/03/24 01:51:54;;;;;;;34.88;15.77;;;;;;;1.47;87.06;97626.72;5015273;28;20030;-63
2022/03/24 01:54:22;;;;;;;26.60;13.85;;;;;;;1.62;86.12;97629.28;5012716;28;20033;-63
2022/03/24 01:56:49;;;;;;;28.65;15.10;;;;;;;1.66;86.42;97629.53;5011069;28;20033;-65
2022/03/24 01:59:14;;;;;;;29.30;15.18;;;;;;;1.59;85.96;97627.16;5013113;28;20034;-65
2022/03/24 02:01:40;;;;;;;30.10;14.75;;;;;;;1.63;86.04;97630.09;5012321;28;20018;-64
2022/03/24 02:04:06;;;;;;;25.38;13.35;;;;;;;1.81;84.29;97628.56;5008720;28;20446;-64
2022/03/24 02:06:35;;;;;;;28.30;14.43;;;;;;;1.88;83.18;97629.00;5011637;28;20122;-64
2022/03/24 02:09:01;;;;;;;25.02;12.98;;;;;;;1.92;83.46;97633.53;5013074;28;20065;-63
2022/03/24 02:11:28;;;;;;;29.92;15.05;;;;;;;1.67;82.27;97621.13;5017503;28;20406;-64
2022/03/24 02:13:57;;;;;;;27.38;13.98;;;;;;;1.60;83.17;97622.56;5014482;28;20022;-65
2022/03/24 02:16:34;;;;;;;29.33;14.60;;;;;;;1.73;82.84;97627.28;5010687;28;20486;-62
2022/03/24 02:19:14;;;;;;;27.17;14.38;;;;;;;1.72;82.42;97623.75;5008668;28;20042;-63
2022/03/24 02:21:40;;;;;;;25.80;13.98;;;;;;;1.75;82.87;97624.28;5008701;28;20057;-63
2022/03/24 02:24:07;;;;;;;30.75;15.43;;;;;;;1.81;82.13;97623.94;5011370;28;20041;-64
2022/03/24 02:26:35;;;;;;;31.40;14.05;;;;;;;1.81;81.70;97618.53;5010513;28;20040;-64
2022/03/24 02:29:07;;;;;;;26.75;14.43;;;;;;;1.72;81.98;97622.97;5012945;28;20053;-65
2022/03/24 02:31:39;;;;;;;28.85;13.90;;;;;;;1.60;82.42;97625.25;5010588;28;20037;-65
2022/03/24 02:36:52;;;;;;;26.88;14.05;;;;;;;1.77;82.12;97628.31;5010847;28;20371;-65
2022/03/24 02:39:17;;;;;;;27.35;13.98;;;;;;;1.78;82.13;97627.22;5012406;28;20042;-65
2022/03/24 02:41:51;;;;;;;26.65;13.45;;;;;;;1.70;82.53;97623.25;5012810;28;20037;-63
2022/03/24 02:44:18;;;;;;;29.23;14.52;;;;;;;1.61;83.12;97626.88;5011308;28;20041;-64
2022/03/24 02:46:47;;;;;;;26.52;14.25;;;;;;;1.50;83.16;97629.66;5009628;28;20386;-65
2022/03/24 02:49:13;;;;;;;29.77;14.18;;;;;;;1.29;81.23;97630.94;5008985;28;20041;-65
2022/03/24 02:51:39;;;;;;;25.27;12.77;;;;;;;1.14;82.00;97632.69;5010530;28;20041;-66
2022/03/24 02:54:04;;;;;;;25.35;13.40;;;;;;;1.10;82.62;97626.25;5011122;28;20033;-65
2022/03/24 02:56:30;;;;;;;26.15;13.75;;;;;;;1.05;83.65;97633.56;4998427;28;20570;-65
2022/03/24 02:58:56;;;;;;;26.65;14.70;;;;;;;0.93;82.64;97632.03;5009469;28;20029;-65
2022/03/24 03:01:25;;;;;;;28.75;15.20;;;;;;;0.79;82.49;97622.94;5011077;28;20088;-65
2022/03/24 03:03:52;;;;;;;25.20;13.70;;;;;;;0.80;84.18;97632.66;5008592;28;20430;-65
2022/03/24 03:06:18;;;;;;;29.10;13.60;;;;;;;0.68;83.83;97624.91;5010018;28;20485;-65
2022/03/24 03:08:44;;;;;;;24.80;13.65;;;;;;;0.62;83.56;97631.44;5012436;28;20034;-64
2022/03/24 03:11:09;;;;;;;29.25;15.38;;;;;;;0.66;85.20;97639.75;5008309;28;20045;-64
2022/03/24 03:13:35;;;;;;;25.95;13.63;;;;;;;0.64;86.34;97634.66;5011890;28;20397;-65
2022/03/24 03:16:00;;;;;;;29.27;15.10;;;;;;;0.61;85.56;97637.09;5010824;28;20384;-65
2022/03/24 03:18:25;;;;;;;26.08;13.65;;;;;;;0.50;84.20;97636.34;5010253;28;20101;-65
2022/03/24 03:20:51;;;;;;;26.05;13.63;;;;;;;0.48;85.58;97642.00;5009466;28;20050;-65
2022/03/24 03:23:18;;;;;;;28.50;14.32;;;;;;;0.53;86.30;97635.81;5011590;28;20100;-64
2022/03/24 03:25:43;;;;;;;27.17;13.65;;;;;;;0.61;87.19;97639.78;5008893;28;20033;-64
2022/03/24 03:28:09;;;;;;;32.80;14.30;;;;;;;0.33;88.38;97648.28;5008913;28;20030;-62
2022/03/24 03:30:34;;;;;;;31.38;15.35;;;;;;;0.09;89.67;97645.44;5008496;28;20037;-64
2022/03/24 03:32:59;;;;;;;27.45;14.30;;;;;;;0.17;90.62;97652.13;5024936;28;20109;-65
2022/03/24 03:35:27;;;;;;;26.23;14.27;;;;;;;0.42;89.28;97643.13;5012086;28;20033;-63
2022/03/24 03:37:54;;;;;;;26.45;14.05;;;;;;;0.59;89.16;97647.34;5011264;28;20045;-65
2022/03/24 03:40:19;;;;;;;32.88;14.25;;;;;;;0.74;87.39;97641.88;5012130;28;20076;-65
2022/03/24 03:42:45;;;;;;;29.80;14.85;;;;;;;0.76;87.04;97645.09;5013253;28;20034;-65
2022/03/24 03:45:10;;;;;;;27.60;14.18;;;;;;;0.69;87.46;97648.09;5012570;28;20036;-64
2022/03/24 03:47:35;;;;;;;26.50;13.98;;;;;;;0.71;87.42;97635.13;5013540;28;20037;-64
2022/03/24 03:50:01;;;;;;;25.08;13.55;;;;;;;0.67;87.10;97644.09;5006612;28;20420;-64
2022/03/24 03:52:26;;;;;;;28.95;14.27;;;;;;;0.55;87.91;97639.03;5011962;28;20037;-64
2022/03/24 03:54:52;;;;;;;28.23;14.25;;;;;;;0.49;88.44;97651.72;5011054;28;20061;-65
2022/03/24 03:57:17;;;;;;;29.77;14.77;;;;;;;0.51;88.23;97643.38;5010709;28;20530;-65
2022/03/24 03:59:42;;;;;;;27.40;13.20;;;;;;;0.51;88.55;97648.75;5009762;28;20033;-65
2022/03/24 04:02:08;;;;;;;27.73;14.82;;;;;;;0.20;89.13;97640.81;5010291;28;20443;-65
2022/03/24 04:04:33;;;;;;;26.35;14.35;;;;;;;-0.26;90.95;97644.44;5007968;28;20036;-64
2022/03/24 04:06:59;;;;;;;25.67;14.30;;;;;;;-0.47;92.38;97638.31;5011462;28;20038;-62
2022/03/24 04:09:24;;;;;;;28.67;14.43;;;;;;;-0.62;94.74;97638.34;5018449;28;20034;-64
2022/03/24 04:11:50;;;;;;;29.02;14.45;;;;;;;-0.42;94.57;97632.91;5014615;28;20458;-62
2022/03/24 04:14:15;;;;;;;31.05;16.13;;;;;;;-0.34;93.58;97636.94;5011513;28;20110;-64
2022/03/24 04:16:41;;;;;;;28.27;14.52;;;;;;;-0.57;94.68;97638.34;5014198;28;20029;-65
2022/03/24 04:19:07;;;;;;;29.33;14.10;;;;;;;-0.64;95.23;97635.91;5013852;28;20073;-63
2022/03/24 04:21:33;;;;;;;29.20;15.82;;;;;;;-0.54;95.42;97640.50;5010799;28;20037;-64
2022/03/24 04:23:58;;;;;;;30.50;15.50;;;;;;;-0.51;95.39;97633.75;5007448;28;20050;-62
2022/03/24 04:26:23;;;;;;;29.02;15.48;;;;;;;-0.27;95.41;97636.66;5010181;28;20063;-63
2022/03/24 04:28:49;;;;;;;29.85;14.75;;;;;;;-0.08;94.67;97636.88;5010837;28;20034;-63
2022/03/24 04:31:16;;;;;;;35.22;15.82;;;;;;;0.06;93.79;97637.09;4993062;28;20030;-63
2022/03/24 04:33:42;;;;;;;29.38;14.48;;;;;;;0.09;93.30;97639.22;5008980;28;20198;-64
2022/03/24 04:36:08;;;;;;;28.45;13.95;;;;;;;0.15;93.28;97643.53;5009957;28;20510;-63
2022/03/24 04:38:35;;;;;;;28.90;13.93;;;;;;;0.26;92.46;97647.00;5010375;28;20053;-62
2022/03/24 04:41:01;;;;;;;26.50;13.38;;;;;;;0.25;91.61;97650.75;5009449;28;20589;-64
2022/03/24 04:43:26;;;;;;;29.38;15.00;;;;;;;0.27;90.72;97652.09;5013522;28;20089;-64
2022/03/24 04:45:52;;;;;;;27.15;14.50;;;;;;;0.32;90.37;97656.66;5034814;23;20490;-66
2022/03/24 04:48:18;;;;;;;27.75;14.60;;;;;;;0.41;90.03;97651.50;5014817;28;20605;-67
2022/03/24 04:50:43;;;;;;;28.45;14.65;;;;;;;0.38;89.30;97650.97;5012653;28;20037;-65
2022/03/24 04:53:15;;;;;;;27.10;14.30;;;;;;;0.34;89.23;97657.16;5016097;28;20036;-67
2022/03/24 04:55:42;;;;;;;23.27;13.35;;;;;;;0.21;88.71;97655.88;5013191;28;20550;-67
2022/03/24 04:58:08;;;;;;;31.05;15.05;;;;;;;-0.24;90.60;97668.41;5014855;28;20069;-67
2022/03/24 05:00:34;;;;;;;28.52;14.02;;;;;;;-0.52;91.86;97669.78;5013788;28;20044;-66
2022/03/24 05:02:59;;;;;;;29.58;14.77;;;;;;;-0.54;92.95;97678.16;5037165;28;20038;-66
2022/03/24 05:05:25;;;;;;;30.55;15.57;;;;;;;-0.51;92.78;97676.81;5033060;28;20037;-66
2022/03/24 05:07:50;;;;;;;31.98;15.88;;;;;;;-0.70;95.15;97668.47;5035614;28;20037;-67
2022/03/24 05:10:16;;;;;;;31.83;16.23;;;;;;;-0.51;95.46;97666.03;5032010;28;20057;-68
2022/03/24 05:12:42;;;;;;;36.33;16.92;;;;;;;-0.47;94.59;97672.47;5015760;28;20053;-67
2022/03/24 05:15:11;;;;;;;35.95;17.67;;;;;;;-0.84;96.41;97673.59;5013562;28;20118;-68
2022/03/24 05:17:37;;;;;;;37.55;16.20;;;;;;;-1.05;99.41;97675.44;5012669;28;20037;-67
2022/03/24 05:20:04;;;;;;;29.55;14.40;;;;;;;-0.92;100.00;97679.50;5014021;28;20041;-66
2022/03/24 05:22:29;;;;;;;36.03;16.75;;;;;;;-0.63;99.86;97669.00;5013466;28;20041;-67
2022/03/24 05:24:55;;;;;;;36.13;16.25;;;;;;;-0.48;98.86;97679.75;5014936;28;20033;-66
2022/03/24 05:27:20;;;;;;;32.13;16.92;;;;;;;-0.31;98.07;97670.59;5010360;28;20482;-66
2022/03/24 05:29:45;;;;;;;33.65;16.90;;;;;;;-0.08;95.80;97672.69;5014812;28;20045;-67
2022/03/24 05:32:11;;;;;;;30.33;15.57;;;;;;;0.29;95.05;97678.75;5012652;28;20034;-66
2022/03/24 05:34:36;;;;;;;31.85;15.57;;;;;;;0.85;91.97;97675.00;5012630;28;20034;-66
2022/03/24 05:37:02;;;;;;;30.08;14.52;;;;;;;0.68;89.01;97676.13;5013985;28;20030;-67
2022/03/24 05:39:28;;;;;;;35.08;16.02;;;;;;;1.13;87.07;97679.66;5015654;28;20045;-66
2022/03/24 05:41:53;;;;;;;28.05;14.48;;;;;;;1.75;86.70;97681.81;5015524;28;20033;-69
2022/03/24 05:44:19;;;;;;;26.85;13.40;;;;;;;2.67;79.69;97690.78;5013354;28;20474;-68
2022/03/24 05:46:45;;;;;;;27.42;12.98;;;;;;;3.49;75.51;97680.66;5013193;28;20034;-66
2022/03/24 05:49:17;;;;;;;25.77;12.75;;;;;;;4.06;70.21;97678.56;5012856;28;20033;-67
2022/03/24 05:51:43;;;;;;;26.17;13.20;;;;;;;3.90;72.61;97683.44;5012208;28;20110;-65
2022/03/24 05:54:13;;;;;;;25.13;12.88;;;;;;;4.91;68.31;97680.91;5020308;28;20044;-68
2022/03/24 05:56:39;;;;;;;21.70;11.77;;;;;;;5.79;62.81;97683.16;5022785;28;20086;-65
2022/03/24 05:59:05;;;;;;;22.85;11.63;;;;;;;6.42;61.08;97694.03;5016499;28;20045;-68
2022/03/24 06:01:31;;;;;;;25.55;12.38;;;;;;;6.67;57.58;97693.31;5014256;28;20418;-68
2022/03/24 06:04:00;;;;;;;24.27;12.00;;;;;;;6.55;58.88;97692.31;5011514;28;20034;-68
2022/03/24 06:06:26;;;;;;;21.67;11.55;;;;;;;7.08;56.13;97688.59;5016615;28;20161;-68
2022/03/24 06:08:56;;;;;;;23.63;12.23;;;;;;;8.08;53.58;97691.34;5031280;28;20069;-68
2022/03/24 06:11:23;;;;;;;23.23;11.48;;;;;;;8.98;50.87;97696.56;5013699;28;20029;-69
2022/03/24 06:13:48;;;;;;;20.90;11.32;;;;;;;9.06;48.25;97697.63;5015257;28;20026;-68
2022/03/24 06:16:14;;;;;;;20.55;11.50;;;;;;;9.42;46.85;97696.25;5014467;28;20382;-66
2022/03/24 06:18:40;;;;;;;18.50;10.45;;;;;;;9.74;46.83;97699.31;5011608;28;20034;-67
2022/03/24 06:21:07;;;;;;;19.30;10.85;;;;;;;9.46;47.92;97696.38;5012540;28;20176;-69
2022/03/24 06:23:33;;;;;;;18.05;11.77;;;;;;;8.57;49.43;97700.81;5012639;28;20030;-68
2022/03/24 06:25:59;;;;;;;21.15;11.77;;;;;;;9.18;49.47;97696.91;5011517;28;20048;-71
2022/03/24 06:28:24;;;;;;;22.58;11.43;;;;;;;10.54;46.51;97698.16;5013986;28;20105;-69
2022/03/24 06:30:50;;;;;;;24.10;12.00;;;;;;;11.11;43.75;97696.41;5013572;28;20168;-68
2022/03/24 06:33:18;;;;;;;22.42;12.02;;;;;;;11.95;42.25;97698.41;5012361;28;20034;-67
2022/03/24 06:35:45;;;;;;;19.00;12.48;;;;;;;11.41;42.02;97699.63;5003121;28;20109;-70
2022/03/24 06:38:11;;;;;;;21.42;12.38;;;;;;;10.16;44.56;97703.91;5005586;28;20053;-70
2022/03/24 06:40:38;;;;;;;23.92;12.63;;;;;;;9.47;48.27;97696.03;5017461;28;20046;-69
2022/03/24 06:43:05;;;;;;;21.30;13.00;;;;;;;9.44;49.42;97691.25;5010896;28;20046;-70
2022/03/24 06:45:31;;;;;;;21.80;12.23;;;;;;;8.95;51.60;97701.91;5000768;28;20401;-69
2022/03/24 06:47:57;;;;;;;25.80;13.80;;;;;;;8.68;49.49;97693.06;5002729;28;20140;-69
2022/03/24 06:50:22;;;;;;;22.83;12.40;;;;;;;8.84;51.51;97697.94;4990225;28;20046;-69
2022/03/24 06:52:48;;;;;;;23.15;13.68;;;;;;;9.06;50.85;97694.91;4991848;28;20387;-68
2022/03/24 06:55:13;;;;;;;31.75;16.80;;;;;;;7.42;53.83;97697.88;4989866;28;20054;-68
2022/03/24 06:57:40;;;;;;;27.92;15.40;;;;;;;5.97;58.83;97697.69;4991216;28;20045;-69
2022/03/24 07:00:07;;;;;;;32.17;15.88;;;;;;;6.13;63.13;97698.88;4989338;28;20045;-68
2022/03/24 07:02:32;;;;;;;29.00;14.20;;;;;;;7.56;57.70;97709.44;4976412;28;20049;-67
2022/03/24 07:04:58;;;;;;;23.85;14.10;;;;;;;8.73;52.20;97705.72;4988006;28;20046;-68
2022/03/24 07:07:25;;;;;;;26.95;14.57;;;;;;;9.86;49.58;97707.56;4989550;28;20050;-68
2022/03/24 07:09:50;;;;;;;26.08;14.13;;;;;;;10.32;47.62;97708.41;4996701;28;20038;-70
2022/03/24 07:12:19;;;;;;;48.42;27.05;;;;;;;10.30;45.77;97702.44;4989922;28;20637;-70
2022/03/24 07:14:45;;;;;;;31.75;20.98;;;;;;;10.59;46.16;97700.69;4991399;28;20034;-69
2022/03/24 07:17:10;;;;;;;23.38;15.15;;;;;;;10.42;46.24;97703.63;4993574;28;20045;-70
2022/03/24 07:19:36;;;;;;;28.33;14.85;;;;;;;11.43;43.46;97704.78;5001006;28;20043;-70
2022/03/24 07:22:02;;;;;;;24.75;13.75;;;;;;;13.59;39.34;97710.94;5003374;28;20045;-70
2022/03/24 07:24:28;;;;;;;22.55;12.80;;;;;;;15.75;34.57;97703.47;4991039;28;20173;-70
2022/03/24 07:26:53;;;;;;;24.80;12.10;;;;;;;15.77;34.28;97701.94;4994068;28;20136;-70
2022/03/24 07:29:18;;;;;;;20.83;12.10;;;;;;;16.91;32.53;97709.75;4990035;28;20053;-68
2022/03/24 07:31:44;;;;;;;20.65;12.57;;;;;;;15.74;33.88;97708.22;4990170;28;20109;-69
2022/03/24 07:34:10;;;;;;;17.70;11.25;;;;;;;15.20;34.12;97704.72;4994808;28;20057;-69
2022/03/24 07:36:36;;;;;;;18.88;11.35;;;;;;;16.15;33.50;97705.50;4999907;28;20053;-70
2022/03/24 07:39:01;;;;;;;20.08;11.73;;;;;;;14.36;36.16;97706.50;5007842;28;20117;-70
2022/03/24 07:41:27;;;;;;;20.00;11.63;;;;;;;14.81;35.75;97706.88;5001059;28;20066;-70
2022/03/24 07:43:52;;;;;;;19.55;11.45;;;;;;;14.91;35.70;97709.03;5003531;28;20043;-70
2022/03/24 07:46:18;;;;;;;22.70;12.43;;;;;;;16.98;32.77;97714.56;4995698;28;20133;-68
2022/03/24 07:48:48;;;;;;;20.60;11.25;;;;;;;17.56;31.07;97699.88;5000684;28;20056;-70
2022/03/24 07:51:14;;;;;;;;;;;;;;;16.15;33.51;97708.28;4997772;28;20137;-70
2022/03/24 07:53:52;;;;;;;18.80;11.27;;;;;;;16.87;32.17;97697.88;4995322;28;19948;-70
2022/03/24 07:56:21;;;;;;;19.05;12.13;;;;;;;16.25;33.61;97699.28;4988913;28;20718;-70
2022/03/24 07:58:47;;;;;;;25.20;12.52;;;;;;;17.75;31.37;97698.78;4993683;28;20046;-69
2022/03/24 08:01:13;;;;;;;25.42;12.25;;;;;;;17.98;31.18;97697.69;4982191;28;20101;-69
2022/03/24 08:03:38;;;;;;;26.27;12.25;;;;;;;18.68;29.74;97700.16;4995681;28;20069;-69
2022/03/24 08:06:04;;;;;;;18.63;11.65;;;;;;;17.56;31.39;97699.88;4987051;28;20073;-71
2022/03/24 08:08:33;;;;;;;17.88;11.85;;;;;;;18.25;30.90;97698.13;4990603;28;20117;-71
2022/03/24 08:10:58;;;;;;;20.02;11.48;;;;;;;18.87;28.99;97699.81;5002631;28;20073;-70
2022/03/24 08:13:24;;;;;;;18.85;11.52;;;;;;;19.04;29.06;97700.19;4995530;28;20104;-70
2022/03/24 08:15:50;;;;;;;18.60;11.68;;;;;;;17.50;30.99;97697.84;5002767;28;20050;-69
2022/03/24 08:18:17;;;;;;;21.27;11.38;;;;;;;18.21;29.89;97702.88;5012635;28;20072;-71
2022/03/24 08:20:44;;;;;;;19.08;10.95;;;;;;;16.16;33.62;97698.78;5016608;28;20046;-70
2022/03/24 08:23:11;;;;;;;21.40;13.60;;;;;;;18.21;30.74;97696.56;4991583;28;20050;-70
2022/03/24 08:25:38;;;;;;;18.30;11.60;;;;;;;17.27;31.83;97704.47;5006180;28;20042;-70
2022/03/24 08:28:05;;;;;;;20.83;11.07;;;;;;;17.86;30.71;97701.63;4997759;28;20137;-72
2022/03/24 08:30:32;;;;;;;20.65;12.00;;;;;;;18.91;29.85;97705.34;4981197;28;20042;-69
2022/03/24 08:32:57;;;;;;;19.08;11.90;;;;;;;19.21;28.95;97699.38;5003007;28;20038;-70
2022/03/24 08:35:23;;;;;;;23.67;12.65;;;;;;;18.21;30.08;97702.09;4996843;28;20303;-70
2022/03/24 08:37:48;;;;;;;18.70;11.75;;;;;;;15.88;34.54;97704.81;5001662;28;20034;-70
2022/03/24 08:40:15;;;;;;;25.75;14.25;;;;;;;16.20;34.29;97704.34;4994594;28;20114;-70
2022/03/24 08:42:42;;;;;;;20.58;12.13;;;;;;;17.63;32.14;97698.28;5000002;28;20042;-71
2022/03/24 08:45:09;;;;;;;22.85;12.90;;;;;;;18.51;31.08;97699.78;5015478;28;20052;-70
2022/03/24 08:47:35;;;;;;;21.17;11.68;;;;;;;18.07;31.92;97705.63;5003576;28;20100;-69
2022/03/24 08:50:01;;;;;;;19.75;12.05;;;;;;;17.54;33.01;97701.44;5001507;28;20046;-68
2022/03/24 08:52:27;;;;;;;21.70;12.48;;;;;;;17.44;33.35;97702.97;4994389;28;20046;-68
2022/03/24 08:54:54;;;;;;;24.27;13.38;;;;;;;17.60;33.75;97704.63;5004841;28;20041;-69
2022/03/24 08:57:26;;;;;;;20.48;12.90;;;;;;;16.00;35.84;97712.03;4992939;28;20568;-68
2022/03/24 08:59:52;;;;;;;28.10;13.10;;;;;;;17.20;34.15;97707.97;4998794;28;20478;-69
2022/03/24 09:02:18;;;;;;;24.35;13.52;;;;;;;17.33;34.23;97708.44;5004301;28;20523;-70
2022/03/24 09:04:43;;;;;;;19.20;12.65;;;;;;;17.92;33.75;97705.59;5014578;28;20050;-69
2022/03/24 09:07:09;;;;;;;27.13;13.93;;;;;;;17.09;34.85;97701.59;5004168;28;20052;-69
2022/03/24 09:09:35;;;;;;;23.13;12.82;;;;;;;17.70;34.52;97703.88;4991922;28;20052;-69
2022/03/24 09:12:01;;;;;;;25.95;13.70;;;;;;;17.56;34.85;97707.38;4990908;28;20050;-69
2022/03/24 09:14:26;;;;;;;29.83;14.80;;;;;;;17.39;35.48;97709.69;4991227;28;20050;-69
2022/03/24 09:16:51;;;;;;;22.75;14.15;;;;;;;17.40;34.92;97707.69;4996304;28;20045;-68
2022/03/24 09:19:17;;;;;;;23.15;12.82;;;;;;;17.01;36.63;97711.00;4993844;28;20473;-68
2022/03/24 09:21:42;;;;;;;25.65;14.73;;;;;;;16.78;35.72;97705.66;4998564;28;20046;-68
2022/03/24 09:24:08;;;;;;;22.17;13.93;;;;;;;16.88;35.33;97707.75;4989314;28;20046;-69
2022/03/24 09:26:36;;;;;;;25.92;13.75;;;;;;;17.27;35.16;97709.19;4989866;28;20050;-67
2022/03/24 09:29:02;;;;;;;24.88;14.05;;;;;;;16.92;35.73;97708.56;4992031;28;20382;-69
2022/03/24 09:31:27;;;;;;;26.20;13.73;;;;;;;17.57;34.17;97701.47;4992796;28;20042;-68
2022/03/24 09:33:53;;;;;;;26.23;14.55;;;;;;;18.00;33.12;97708.38;4995130;28;20056;-68
2022/03/24 09:36:19;;;;;;;30.85;14.88;;;;;;;17.49;33.62;97707.34;4993699;28;20045;-69
2022/03/24 09:38:45;;;;;;;24.67;15.20;;;;;;;16.59;34.92;97710.25;5003328;28;20145;-69
2022/03/24 09:41:13;;;;;;;30.27;15.13;;;;;;;17.31;34.87;97710.03;4991904;28;20457;-70
2022/03/24 09:43:41;;;;;;;27.10;14.60;;;;;;;17.60;33.34;97705.44;4996427;28;20049;-68
2022/03/24 09:46:07;;;;;;;23.13;14.63;;;;;;;18.59;31.48;97700.56;5000808;28;20936;-68
2022/03/24 09:48:33;;;;;;;25.88;15.23;;;;;;;19.10;31.59;97701.34;4998450;28;20133;-69
2022/03/24 09:50:58;;;;;;;26.73;15.38;;;;;;;19.19;30.99;97704.50;4999711;28;20137;-69
2022/03/24 09:53:24;;;;;;;24.90;15.30;;;;;;;19.25;30.71;97696.59;4991217;28;20129;-69
2022/03/24 09:55:50;;;;;;;26.45;14.65;;;;;;;19.43;31.15;97693.75;4993636;28;20042;-70
2022/03/24 09:58:16;;;;;;;24.98;14.60;;;;;;;19.66;31.08;97691.28;4999143;28;20133;-69
2022/03/24 10:00:42;;;;;;;29.73;15.90;;;;;;;19.58;31.26;97691.72;5001734;28;20176;-69
2022/03/24 10:03:14;;;;;;;30.65;16.40;;;;;;;18.99;32.39;97686.69;4989560;28;20042;-70
2022/03/24 10:05:56;;;;;;;31.80;15.75;;;;;;;19.54;30.97;97691.72;5003318;28;20140;-67
2022/03/24 10:08:22;;;;;;;26.20;15.35;;;;;;;18.97;31.96;97684.31;4997246;28;20037;-69
2022/03/24 10:10:47;;;;;;;26.30;15.02;;;;;;;18.86;31.61;97683.53;4999720;28;20038;-68
2022/03/24 10:13:23;;;;;;;29.30;15.50;;;;;;;19.26;31.47;97679.50;5000137;28;20065;-70
2022/03/24 10:15:48;;;;;;;27.23;15.68;;;;;;;19.09;31.44;97674.78;5003577;28;20045;-69
2022/03/24 10:18:16;;;;;;;34.88;16.38;;;;;;;19.33;30.84;97675.91;4998214;28;20038;-70
2022/03/24 10:20:42;;;;;;;28.25;16.52;;;;;;;19.09;30.53;97672.00;5003941;28;20410;-68
2022/03/24 10:23:07;;;;;;;33.65;18.00;;;;;;;19.80;30.18;97684.91;5003720;28;20048;-70
2022/03/24 10:25:37;;;;;;;29.90;17.15;;;;;;;19.49;31.17;97679.03;5010193;28;20192;-69
2022/03/24 10:28:11;;;;;;;27.13;16.52;;;;;;;19.55;31.04;97668.28;5020465;28;20172;-70
2022/03/24 10:30:51;;;;;;;27.58;16.50;;;;;;;19.11;31.76;97666.84;5019403;28;20050;-68
2022/03/24 10:33:35;;;;;;;31.50;17.30;;;;;;;19.94;30.32;97664.56;4994718;28;20566;-68
2022/03/24 10:36:17;;;;;;;28.77;17.77;;;;;;;19.90;30.07;97661.03;4992991;28;20046;-68
2022/03/24 10:38:48;;;;;;;33.42;17.92;;;;;;;18.55;31.09;97663.69;5018262;28;20061;-69
2022/03/24 10:41:18;;;;;;;28.08;15.88;;;;;;;18.29;31.90;97657.34;4998301;28;20046;-70
2022/03/24 10:43:45;;;;;;;28.92;16.98;;;;;;;18.12;32.32;97658.13;5008726;28;20386;-67
2022/03/24 10:46:16;;;;;;;32.47;18.17;;;;;;;19.55;30.91;97650.84;4994333;28;20059;-70
2022/03/24 10:48:42;;;;;;;32.40;17.77;;;;;;;19.50;31.10;97646.50;5004211;28;20066;-70
2022/03/24 10:51:08;;;;;;;25.77;16.90;;;;;;;19.09;31.23;97645.03;5005959;28;20045;-69
2022/03/24 10:53:42;;;;;;;35.30;18.23;;;;;;;18.71;32.47;97646.66;4997678;28;20049;-69
2022/03/24 10:56:30;;;;;;;28.58;16.50;;;;;;;18.96;31.41;97641.09;4986944;28;20070;-68
2022/03/24 10:59:00;;;;;;;30.15;17.90;;;;;;;18.69;31.06;97644.28;4998181;28;20092;-68
2022/03/24 11:01:29;;;;;;;33.22;18.13;;;;;;;18.48;31.51;97642.28;4995508;28;20370;-69
2022/03/24 11:03:55;;;;;;;38.72;19.75;;;;;;;17.73;32.47;97639.38;5000619;28;20049;-69
2022/03/24 11:06:24;;;;;;;34.20;17.95;;;;;;;18.23;32.94;97628.41;4997370;28;20050;-68
2022/03/24 11:09:00;;;;;;;34.90;18.40;;;;;;;18.09;32.97;97631.97;5002344;28;20059;-69
2022/03/24 11:11:27;;;;;;;34.55;19.25;;;;;;;18.09;32.89;97622.84;4997691;28;20622;-69
2022/03/24 11:13:55;;;;;;;35.47;18.70;;;;;;;18.22;32.75;97626.84;5002777;28;20152;-69
2022/03/24 11:16:34;;;;;;;32.22;18.55;;;;;;;18.10;33.01;97621.69;4995485;28;20382;-70
2022/03/24 11:19:01;;;;;;;36.33;19.35;;;;;;;17.79;33.13;97626.75;4994916;28;20042;-69
2022/03/24 11:21:39;;;;;;;33.05;18.08;;;;;;;17.62;33.19;97619.94;4993636;28;20506;-70
2022/03/24 11:24:06;;;;;;;34.15;18.52;;;;;;;17.64;33.47;97617.56;4998361;28;20596;-68